Bear Butte, South Dakota
Current Conditions -  °F | °C
As of 11:58 AM on Thursday 27 Nov 2014 (Local Time) from KRCA Reporting Station
Clear Clear  
Wind Chill: 19°   Ceiling: Unl
Heat Index: 29°   Visibility: 9mi
Dew Point: 25°   Wind: 13mph
Humidity: 84%   Direction: 180°S
Pressure: 29.96"   Gusts: NA
Location:  44.4145°N, 103.17°W
Report Text: KRCA 271858Z AUTO 18011KT 9SM CLR M02/M04 A2996 RMK AO2 SLP187 T10161040 $
Loading
Personal Weather Stations






























Interactive Weather Map New forecast layout! Learn more

10-Day Weather Forecast

Advertisements
Track Severe Weather on mobile